Time;durP1;ratioP1;P1;durP2;ratioP2;P2;SDS_P1;SDS_P2;PMS_P1;PMS_P2;Temp;Humidity;BMP_temperature;BMP_pressure;BME280_temperature;BME280_humidity;BME280_pressure;Samples;Min_cycle;Max_cycle;Signal;HPM_P1;HPM_P2
2022/03/14 00:01:05;;;;;;;24.73;11.95;;;;;;;-0.31;100.00;100018.66;4375580;32;20082;-74
2022/03/14 00:03:39;;;;;;;27.45;11.45;;;;;;;-0.60;100.00;99975.59;4362491;32;20043;-74
2022/03/14 00:06:08;;;;;;;26.30;12.15;;;;;;;-0.47;100.00;99999.00;4361416;32;20038;-74
2022/03/14 00:08:37;;;;;;;27.65;11.12;;;;;;;-0.63;100.00;99961.88;4374731;32;20075;-74
2022/03/14 00:11:03;;;;;;;29.42;12.75;;;;;;;-0.62;100.00;99974.12;4362504;32;20404;-74
2022/03/14 00:13:30;;;;;;;25.48;11.85;;;;;;;-0.29;100.00;100021.97;4360846;32;20064;-74
2022/03/14 00:15:57;;;;;;;30.33;12.50;;;;;;;-0.31;100.00;100018.66;4374360;32;20052;-74
2022/03/14 00:18:24;;;;;;;21.58;10.45;;;;;;;-0.38;100.00;100008.69;4375145;32;20430;-74
2022/03/14 00:20:51;;;;;;;23.98;13.10;;;;;;;-0.41;100.00;100003.69;4375942;32;20040;-74
2022/03/14 00:23:18;;;;;;;28.67;12.65;;;;;;;-0.96;100.00;99924.59;4374652;32;20079;-74
2022/03/14 00:25:48;;;;;;;30.62;13.23;;;;;;;-0.49;100.00;100001.00;4362415;32;20039;-74
2022/03/14 00:28:15;;;;;;;25.67;12.02;;;;;;;-0.68;100.00;99970.25;4375704;32;20040;-73
2022/03/14 00:30:41;;;;;;;24.98;12.05;;;;;;;-0.42;100.00;100009.97;4375135;32;20077;-73
2022/03/14 00:33:08;;;;;;;34.17;13.02;;;;;;;-0.67;100.00;99976.38;4375234;32;20061;-74
2022/03/14 00:35:34;;;;;;;27.90;14.60;;;;;;;-0.41;100.00;100024.88;4375748;32;20085;-73
2022/03/14 00:38:01;;;;;;;33.67;14.07;;;;;;;-0.45;100.00;100007.63;4374151;32;20074;-73
2022/03/14 00:40:27;;;;;;;32.58;14.63;;;;;;;-0.44;100.00;100024.34;4375642;32;20085;-73
2022/03/14 00:42:54;;;;;;;27.60;12.27;;;;;;;-0.41;100.00;100026.69;4375572;32;20057;-74
2022/03/14 00:45:24;;;;;;;23.35;12.40;;;;;;;-0.50;100.00;100025.78;4375657;32;20051;-73
2022/03/14 00:47:51;;;;;;;26.65;12.52;;;;;;;-0.87;100.00;99970.44;4374622;32;20069;-74
2022/03/14 00:50:17;;;;;;;28.17;13.75;;;;;;;-0.52;100.00;100033.06;4375499;32;20065;-74
2022/03/14 00:52:44;;;;;;;23.38;11.82;;;;;;;-0.85;100.00;99979.03;4375475;32;20047;-74
2022/03/14 00:55:11;;;;;;;25.65;11.55;;;;;;;-0.89;100.00;99967.94;4375497;32;20031;-73
2022/03/14 00:57:37;;;;;;;30.80;13.20;;;;;;;-0.89;100.00;99973.25;4361896;32;20036;-73
2022/03/14 01:00:06;;;;;;;29.77;13.30;;;;;;;-0.73;100.00;100015.69;4375387;32;20174;-72
2022/03/14 01:02:32;;;;;;;22.55;9.45;;;;;;;-0.76;100.00;100020.44;4375796;32;20466;-75
2022/03/14 01:04:59;;;;;;;32.63;13.77;;;;;;;-0.83;100.00;100020.22;4361651;32;20035;-75
2022/03/14 01:07:26;;;;;;;22.20;10.45;;;;;;;-1.56;100.00;99912.00;4361793;32;20061;-75
2022/03/14 01:09:52;;;;;;;25.92;11.02;;;;;;;-0.92;100.00;100013.19;4375591;32;20035;-74
2022/03/14 01:12:18;;;;;;;27.83;11.93;;;;;;;-0.99;100.00;100009.47;4361021;32;20039;-74
2022/03/14 01:14:45;;;;;;;29.83;12.45;;;;;;;-1.02;100.00;100020.34;4375151;32;20047;-74
2022/03/14 01:17:11;;;;;;;19.77;11.23;;;;;;;-1.11;100.00;100016.81;4374364;32;20444;-74
2022/03/14 01:19:38;;;;;;;22.42;8.85;;;;;;;-1.15;100.00;100016.28;4361804;32;20067;-75
2022/03/14 01:22:10;;;;;;;22.52;10.07;;;;;;;-1.47;100.00;99953.34;4375136;32;20482;-74
2022/03/14 01:24:38;;;;;;;33.33;13.75;;;;;;;-1.12;100.00;100018.62;4361063;32;20382;-74
2022/03/14 01:27:06;;;;;;;28.87;9.60;;;;;;;-1.23;100.00;100018.81;4375409;32;20081;-74
2022/03/14 01:29:34;;;;;;;25.42;11.20;;;;;;;-1.22;100.00;100017.84;4373517;32;20036;-74
2022/03/14 01:32:04;;;;;;;30.65;12.23;;;;;;;-1.32;100.00;100014.47;4374255;32;20200;-74
2022/03/14 01:34:32;;;;;;;35.90;13.57;;;;;;;-1.68;100.00;99961.53;4375111;32;20038;-74
2022/03/14 01:36:58;;;;;;;34.38;13.45;;;;;;;-1.77;100.00;99959.78;4374114;32;20039;-74
2022/03/14 01:39:25;;;;;;;31.67;12.90;;;;;;;-1.52;100.00;100019.81;4361484;32;20055;-74
2022/03/14 01:41:52;;;;;;;32.60;15.70;;;;;;;-1.86;100.00;99969.41;4374625;32;20417;-74
2022/03/14 01:44:19;;;;;;;30.50;8.82;;;;;;;-1.70;100.00;100000.47;4361560;32;20061;-75
2022/03/14 01:46:45;;;;;;;30.42;11.65;;;;;;;-1.76;100.00;99969.38;4374623;32;20031;-75
2022/03/14 01:49:13;;;;;;;27.02;12.18;;;;;;;-1.46;100.00;100019.25;4361205;32;20055;-74
2022/03/14 01:51:41;;;;;;;30.73;11.63;;;;;;;-1.99;100.00;99943.38;4361400;32;20384;-75
2022/03/14 01:54:11;;;;;;;21.92;9.05;;;;;;;-1.56;100.00;100013.19;4375031;32;20035;-75
2022/03/14 01:56:39;;;;;;;22.27;9.65;;;;;;;-2.05;100.00;99939.47;4373470;32;20068;-75
2022/03/14 01:59:13;;;;;;;28.60;12.20;;;;;;;-1.50;100.00;100032.88;4374834;32;20015;-75
2022/03/14 02:01:39;;;;;;;31.48;13.68;;;;;;;-1.76;100.00;99991.31;4374704;32;20051;-73
2022/03/14 02:04:08;;;;;;;28.55;12.90;;;;;;;-1.57;100.00;100032.66;4374534;32;20039;-74
2022/03/14 02:06:35;;;;;;;33.95;12.73;;;;;;;-1.59;100.00;100037.25;4374532;32;20364;-74
2022/03/14 02:09:04;;;;;;;31.17;11.88;;;;;;;-1.65;100.00;100029.91;4374587;32;20451;-74
2022/03/14 02:11:30;;;;;;;33.03;13.05;;;;;;;-1.68;100.00;100014.34;4374418;32;20090;-74
2022/03/14 02:14:06;;;;;;;33.08;12.50;;;;;;;-1.61;100.00;100044.50;4374487;32;20047;-74
2022/03/14 02:16:33;;;;;;;31.95;13.45;;;;;;;-1.73;100.00;100014.78;4372894;32;20069;-74
2022/03/14 02:18:59;;;;;;;30.25;13.23;;;;;;;-1.60;100.00;100029.47;4360284;32;20035;-74
2022/03/14 02:21:25;;;;;;;31.70;12.77;;;;;;;-2.01;100.00;99966.41;4374471;32;20081;-75
2022/03/14 02:23:52;;;;;;;27.75;12.95;;;;;;;-1.89;100.00;99988.19;4376204;32;20043;-74
2022/03/14 02:26:21;;;;;;;29.85;13.77;;;;;;;-1.89;100.00;99996.94;4376236;32;20032;-73
2022/03/14 02:28:47;;;;;;;32.63;15.02;;;;;;;-1.67;100.00;100037.16;4363957;32;20382;-74
2022/03/14 02:31:14;;;;;;;36.20;13.20;;;;;;;-1.91;100.00;99993.63;4377492;32;20055;-74
2022/03/14 02:33:40;;;;;;;33.92;12.88;;;;;;;-1.51;100.00;100047.91;4363972;32;20061;-74
2022/03/14 02:36:06;;;;;;;24.70;12.00;;;;;;;-1.54;100.00;100040.28;4362610;32;20085;-74
2022/03/14 02:38:33;;;;;;;23.42;10.00;;;;;;;-1.53;100.00;100034.03;4377380;32;20108;-73
2022/03/14 02:40:59;;;;;;;30.33;12.65;;;;;;;-1.38;100.00;100049.38;4375685;32;20039;-74
2022/03/14 02:43:26;;;;;;;26.27;11.90;;;;;;;-1.75;100.00;100003.56;4376052;32;20036;-74
2022/03/14 02:45:54;;;;;;;36.65;13.13;;;;;;;-1.41;100.00;100049.69;4375672;32;20061;-74
2022/03/14 02:48:23;;;;;;;24.00;12.00;;;;;;;-1.45;100.00;100051.78;4377330;32;20040;-74
2022/03/14 02:50:53;;;;;;;29.17;12.68;;;;;;;-1.32;100.00;100062.00;4377088;32;20040;-73
2022/03/14 02:53:21;;;;;;;30.33;11.88;;;;;;;-1.23;100.00;100061.09;4377072;32;20077;-75
2022/03/14 02:55:47;;;;;;;23.45;11.10;;;;;;;-1.53;100.00;100007.63;4375430;32;20043;-75
2022/03/14 02:58:13;;;;;;;26.92;12.82;;;;;;;-1.27;100.00;100065.03;4363810;32;20437;-74
2022/03/14 03:00:40;;;;;;;23.02;9.70;;;;;;;-1.55;100.00;100014.00;4376211;32;20048;-74
2022/03/14 03:03:06;;;;;;;28.70;13.93;;;;;;;-1.24;100.00;100075.31;4377006;32;20089;-75
2022/03/14 03:05:34;;;;;;;29.58;11.40;;;;;;;-1.39;100.00;100060.94;4376950;32;20081;-74
2022/03/14 03:08:03;;;;;;;24.83;10.82;;;;;;;-1.68;100.00;100014.34;4376882;32;20418;-75
2022/03/14 03:10:34;;;;;;;24.37;10.13;;;;;;;-1.45;100.00;100065.00;4375381;32;20047;-75
2022/03/14 03:13:02;;;;;;;27.77;13.00;;;;;;;-1.82;100.00;100018.28;4376413;32;20040;-74
2022/03/14 03:15:36;;;;;;;35.42;11.12;;;;;;;-1.57;100.00;100077.56;4376897;32;20024;-74
2022/03/14 03:18:05;;;;;;;32.45;13.18;;;;;;;-1.58;100.00;100077.69;4376842;32;20102;-74
2022/03/14 03:20:32;;;;;;;27.62;11.18;;;;;;;-1.65;100.00;100080.09;4363324;32;20057;-75
2022/03/14 03:22:58;;;;;;;28.12;12.25;;;;;;;-1.98;100.00;100029.47;4376776;32;20043;-74
2022/03/14 03:25:25;;;;;;;31.27;14.30;;;;;;;-1.67;100.00;100082.06;4361660;32;20043;-75
2022/03/14 03:27:51;;;;;;;27.62;12.82;;;;;;;-2.20;100.00;100014.84;4376599;32;20043;-75
2022/03/14 03:30:17;;;;;;;24.42;10.95;;;;;;;-1.78;100.00;100090.97;4376569;32;20039;-75
2022/03/14 03:32:44;;;;;;;30.67;11.50;;;;;;;-1.76;100.00;100096.94;4376710;32;20044;-74
2022/03/14 03:35:10;;;;;;;27.77;13.30;;;;;;;-1.80;100.00;100097.38;4360746;32;20021;-74
2022/03/14 03:37:37;;;;;;;30.98;12.43;;;;;;;-1.89;100.00;100086.69;4363166;32;20158;-75
2022/03/14 03:40:05;;;;;;;23.05;12.00;;;;;;;-1.84;100.00;100100.28;4376492;32;20065;-74
2022/03/14 03:42:31;;;;;;;26.02;11.80;;;;;;;-1.88;100.00;100103.38;4374824;32;20035;-75
2022/03/14 03:44:57;;;;;;;31.37;12.02;;;;;;;-2.50;100.00;100013.22;4376618;32;20032;-74
2022/03/14 03:47:24;;;;;;;28.62;12.50;;;;;;;-1.90;100.00;100108.81;4376461;32;20035;-75
2022/03/14 03:49:51;;;;;;;24.23;10.43;;;;;;;-1.90;100.00;100106.16;4376380;32;20069;-74
2022/03/14 03:52:18;;;;;;;28.25;12.65;;;;;;;-2.03;100.00;100081.88;4362971;32;20031;-74
2022/03/14 03:54:44;;;;;;;24.33;10.73;;;;;;;-2.30;100.00;100041.22;4376200;32;20087;-74
2022/03/14 03:57:12;;;;;;;29.50;11.27;;;;;;;-2.02;100.00;100094.09;4376704;32;20372;-74
2022/03/14 03:59:38;;;;;;;32.45;12.32;;;;;;;-1.99;100.00;100109.66;4376134;32;20073;-74
2022/03/14 04:02:05;;;;;;;33.75;12.93;;;;;;;-2.47;100.00;100055.13;4376273;32;20094;-74
2022/03/14 04:04:32;;;;;;;32.85;14.50;;;;;;;-2.48;100.00;100058.75;4376191;32;20035;-74
2022/03/14 04:07:00;;;;;;;30.15;14.27;;;;;;;-2.15;100.00;100127.84;4376132;32;20031;-74
2022/03/14 04:09:27;;;;;;;27.08;11.07;;;;;;;-2.23;100.00;100110.94;4360958;32;20048;-74
2022/03/14 04:11:53;;;;;;;29.25;12.60;;;;;;;-2.24;100.00;100109.25;4362038;32;20154;-75
2022/03/14 04:14:20;;;;;;;31.42;13.68;;;;;;;-2.57;100.00;100061.25;4374686;32;20376;-74
2022/03/14 04:16:47;;;;;;;28.77;11.98;;;;;;;-2.23;100.00;100110.94;4375037;32;20353;-74
2022/03/14 04:19:16;;;;;;;27.33;13.27;;;;;;;-2.92;100.00;100004.66;4375875;32;20112;-75
2022/03/14 04:21:46;;;;;;;26.50;10.65;;;;;;;-2.30;100.00;100111.63;4375928;32;20082;-75
2022/03/14 04:24:13;;;;;;;32.25;12.57;;;;;;;-2.60;100.00;100056.25;4375935;32;20043;-75
2022/03/14 04:26:39;;;;;;;33.47;15.15;;;;;;;-2.32;100.00;100103.84;4375808;32;20047;-74
2022/03/14 04:29:06;;;;;;;36.63;12.48;;;;;;;-2.29;100.00;100115.94;4375816;32;20101;-74
2022/03/14 04:31:32;;;;;;;47.70;16.27;;;;;;;-3.22;100.00;99967.88;4375694;32;20044;-74
2022/03/14 04:33:59;;;;;;;17.70;8.45;;;;;;;-2.46;100.00;100099.00;4362198;32;20069;-75
2022/03/14 04:36:32;;;;;;;30.05;12.20;;;;;;;-2.27;100.00;100101.63;4374709;32;20379;-75
2022/03/14 04:38:59;;;;;;;32.33;11.48;;;;;;;-2.25;100.00;100102.34;4375109;32;20036;-75
2022/03/14 04:41:25;;;;;;;34.38;15.00;;;;;;;-2.25;100.00;100101.47;4374542;32;20474;-74
2022/03/14 04:43:52;;;;;;;36.15;14.85;;;;;;;-2.35;100.00;100100.66;4375707;32;20043;-74
2022/03/14 04:46:21;;;;;;;26.80;13.62;;;;;;;-2.29;100.00;100106.22;4375495;32;20043;-75
2022/03/14 04:48:47;;;;;;;33.80;16.70;;;;;;;-2.37;100.00;100095.53;4375438;32;20047;-74
2022/03/14 04:51:14;;;;;;;34.85;13.60;;;;;;;-2.65;100.00;100063.75;4361492;32;20035;-73
2022/03/14 04:53:41;;;;;;;28.00;12.63;;;;;;;-2.67;100.00;100044.59;4375610;32;20051;-74
2022/03/14 04:56:07;;;;;;;29.27;11.48;;;;;;;-2.34;100.00;100108.44;4375639;32;20398;-74
2022/03/14 04:58:35;;;;;;;30.33;14.05;;;;;;;-2.63;100.00;100056.53;4374417;32;20418;-75
2022/03/14 05:01:02;;;;;;;31.00;13.50;;;;;;;-2.27;100.00;100114.81;4375243;32;20179;-74
2022/03/14 05:03:29;;;;;;;29.67;14.32;;;;;;;-2.33;100.00;100104.84;4375242;32;20077;-74
2022/03/14 05:05:55;;;;;;;33.55;13.70;;;;;;;-2.28;100.00;100121.06;4360203;32;20398;-74
2022/03/14 05:08:21;;;;;;;29.90;14.18;;;;;;;-2.60;100.00;100066.81;4375068;32;20093;-74
2022/03/14 05:10:50;;;;;;;33.85;12.75;;;;;;;-2.31;100.00;100124.00;4374543;32;20039;-74
2022/03/14 05:13:17;;;;;;;30.27;15.13;;;;;;;-2.59;100.00;100065.81;4373611;32;20133;-73
2022/03/14 05:15:44;;;;;;;30.10;13.02;;;;;;;-2.31;100.00;100109.94;4361606;32;20090;-75
2022/03/14 05:18:11;;;;;;;34.45;14.60;;;;;;;-2.30;100.00;100117.72;4373952;32;20077;-79
2022/03/14 05:20:39;;;;;;;35.33;14.43;;;;;;;-2.66;100.00;100067.34;4375202;32;20043;-74
2022/03/14 05:23:05;;;;;;;36.17;15.43;;;;;;;-2.34;100.00;100124.28;4361729;32;20040;-75
2022/03/14 05:25:32;;;;;;;36.45;15.15;;;;;;;-2.46;100.00;100099.00;4373862;32;20039;-74
2022/03/14 05:27:59;;;;;;;40.55;17.05;;;;;;;-2.30;100.00;100130.91;4375129;32;20435;-74
2022/03/14 05:30:26;;;;;;;31.92;14.48;;;;;;;-2.38;100.00;100112.31;4375275;32;20051;-74
2022/03/14 05:32:52;;;;;;;39.88;15.02;;;;;;;-2.46;100.00;100096.34;4375091;32;20353;-74
2022/03/14 05:35:19;;;;;;;34.92;14.77;;;;;;;-2.45;100.00;100084.84;4374918;32;20057;-75
2022/03/14 05:37:52;;;;;;;25.83;12.48;;;;;;;-2.58;100.00;100064.84;4375002;32;20043;-73
2022/03/14 05:40:20;;;;;;;34.47;15.38;;;;;;;-2.46;100.00;100083.16;4374838;32;20061;-75
2022/03/14 05:42:49;;;;;;;30.20;13.05;;;;;;;-2.19;100.00;100129.94;4374751;32;20379;-75
2022/03/14 05:45:17;;;;;;;32.45;13.75;;;;;;;-2.08;100.00;100136.88;4361290;32;20049;-75
2022/03/14 05:47:46;;;;;;;25.42;13.18;;;;;;;-2.11;100.00;100135.34;4374554;32;20074;-74
2022/03/14 05:50:13;;;;;;;34.70;13.93;;;;;;;-2.04;100.00;100138.28;4374547;32;20338;-75
2022/03/14 05:52:40;;;;;;;37.60;13.88;;;;;;;-1.97;100.00;100138.53;4373229;32;20031;-76
2022/03/14 05:55:08;;;;;;;31.02;13.65;;;;;;;-1.92;100.00;100150.34;4359604;32;20078;-73
2022/03/14 05:57:35;;;;;;;33.08;15.52;;;;;;;-1.91;100.00;100141.44;4374363;32;20441;-73
2022/03/14 06:00:04;;;;;;;28.10;11.07;;;;;;;-1.81;100.00;100145.87;4359946;32;20174;-73
2022/03/14 06:02:47;;;;;;;34.30;13.95;;;;;;;-2.01;100.00;100103.66;4373511;32;20024;-73
2022/03/14 06:05:17;;;;;;;20.85;11.20;;;;;;;-2.03;100.00;100087.13;4373702;32;20066;-73
2022/03/14 06:07:44;;;;;;;33.13;13.70;;;;;;;-1.78;100.00;100120.03;4373381;32;20504;-73
2022/03/14 06:10:14;;;;;;;32.47;14.32;;;;;;;-1.51;100.00;100158.87;4371992;32;20032;-73
2022/03/14 06:12:42;;;;;;;37.20;13.43;;;;;;;-1.51;100.00;100143.00;4360496;32;20146;-73
2022/03/14 06:15:12;;;;;;;28.62;13.10;;;;;;;-1.71;100.00;100104.44;4361000;32;20039;-73
2022/03/14 06:17:41;;;;;;;30.75;14.57;;;;;;;-1.33;100.00;100160.75;4373645;32;20466;-74
2022/03/14 06:20:13;;;;;;;35.35;14.70;;;;;;;-1.28;100.00;100163.78;4374369;32;20373;-73
2022/03/14 06:22:41;;;;;;;35.38;15.32;;;;;;;-1.17;100.00;100176.00;4360813;32;20024;-73
2022/03/14 06:25:09;;;;;;;42.22;15.05;;;;;;;-1.38;100.00;100120.72;4372138;32;20043;-73
2022/03/14 06:27:37;;;;;;;35.67;15.15;;;;;;;-0.97;100.00;100174.94;4368501;32;20065;-73
2022/03/14 06:30:11;;;;;;;35.08;14.07;;;;;;;-1.21;100.00;100127.88;4372834;32;20015;-73
2022/03/14 06:32:40;;;;;;;35.78;15.07;;;;;;;-1.27;100.00;100112.59;4372502;32;20047;-74
2022/03/14 06:35:09;;;;;;;27.92;12.23;;;;;;;-0.69;100.00;100184.66;4359149;32;20096;-73
2022/03/14 06:37:36;;;;;;;28.58;12.65;;;;;;;-0.59;100.00;100188.06;4360358;32;20028;-74
2022/03/14 06:40:05;;;;;;;36.05;16.45;;;;;;;-0.53;100.00;100190.13;4359520;32;20112;-73
2022/03/14 06:42:31;;;;;;;35.63;15.38;;;;;;;-0.47;100.00;100178.94;4371498;32;20361;-73
2022/03/14 06:45:02;;;;;;;44.28;16.87;;;;;;;-0.59;100.00;100145.75;4359820;32;20020;-74
2022/03/14 06:47:29;;;;;;;33.47;15.63;;;;;;;-0.23;100.00;100182.81;4373017;32;20033;-73
2022/03/14 06:49:55;;;;;;;52.20;16.02;;;;;;;-0.75;100.00;100083.78;4372745;32;20085;-74
2022/03/14 06:52:22;;;;;;;42.67;17.67;;;;;;;-0.43;100.00;100137.97;4358876;32;20376;-73
2022/03/14 06:54:49;;;;;;;42.13;17.20;;;;;;;-0.41;100.00;100136.00;4371824;32;20333;-74
2022/03/14 06:57:16;;;;;;;34.55;15.48;;;;;;;-0.06;100.00;100181.97;4371694;32;20113;-73
2022/03/14 06:59:42;;;;;;;41.42;16.62;;;;;;;-0.27;100.00;100141.75;4372272;32;20028;-73
2022/03/14 07:02:09;;;;;;;40.90;18.98;;;;;;;0.10;100.00;100183.13;4373974;32;20341;-74
2022/03/14 07:04:36;;;;;;;41.58;17.45;;;;;;;0.17;100.00;100182.31;4359555;32;20028;-73
2022/03/14 07:07:03;;;;;;;39.97;14.95;;;;;;;-0.17;100.00;100137.22;4359398;32;20392;-73
2022/03/14 07:09:35;;;;;;;41.42;16.95;;;;;;;0.11;100.00;100163.56;4372492;32;20441;-73
2022/03/14 07:12:02;;;;;;;38.03;15.73;;;;;;;0.45;100.00;100189.34;4375902;32;20044;-74
2022/03/14 07:14:29;;;;;;;40.58;17.37;;;;;;;0.22;100.00;100147.41;4361940;32;20016;-72
2022/03/14 07:16:57;;;;;;;39.35;17.17;;;;;;;0.57;100.00;100203.97;4375199;32;20065;-74
2022/03/14 07:19:23;;;;;;;33.67;16.52;;;;;;;0.55;100.00;100195.34;4361779;32;20065;-73
2022/03/14 07:21:50;;;;;;;41.78;17.23;;;;;;;0.66;100.00;100203.03;4375307;32;20061;-72
2022/03/14 07:24:17;;;;;;;41.37;17.58;;;;;;;0.76;100.00;100197.63;4374931;32;20451;-74
2022/03/14 07:26:43;;;;;;;44.42;17.37;;;;;;;0.89;100.00;100202.50;4361437;32;20043;-73
2022/03/14 07:29:13;;;;;;;35.05;15.93;;;;;;;0.81;100.00;100189.19;4363477;32;20040;-69
2022/03/14 07:31:41;;;;;;;44.38;17.10;;;;;;;0.97;100.00;100194.56;4376639;32;20081;-71
2022/03/14 07:34:08;;;;;;;37.35;16.73;;;;;;;0.86;100.00;100197.50;4362244;32;20031;-72
2022/03/14 07:36:35;;;;;;;39.85;16.40;;;;;;;0.62;100.00;100148.66;4361348;32;20087;-72
2022/03/14 07:39:07;;;;;;;44.13;18.67;;;;;;;0.98;100.00;100206.03;4363033;32;20069;-71
2022/03/14 07:41:34;;;;;;;35.97;16.33;;;;;;;1.14;100.00;100202.63;4374800;32;20069;-71
2022/03/14 07:44:00;;;;;;;32.63;14.07;;;;;;;0.99;100.00;100155.47;4363000;32;20044;-71
2022/03/14 07:46:28;;;;;;;41.63;16.58;;;;;;;1.41;100.00;100205.03;4374092;32;20036;-71
2022/03/14 07:48:55;;;;;;;42.17;16.58;;;;;;;1.47;100.00;100210.69;4362948;32;20032;-71
2022/03/14 07:51:22;;;;;;;48.13;17.55;;;;;;;1.51;100.00;100206.72;4375089;32;20053;-71
2022/03/14 07:53:49;;;;;;;41.67;16.27;;;;;;;1.56;100.00;100207.06;4376145;32;20051;-71
2022/03/14 07:56:21;;;;;;;25.17;13.68;;;;;;;1.64;100.00;100191.16;4374666;32;20024;-72
2022/03/14 07:58:48;;;;;;;38.92;16.10;;;;;;;1.56;100.00;100161.94;4361330;32;20032;-72
2022/03/14 08:01:17;;;;;;;34.97;16.12;;;;;;;1.80;100.00;100193.84;4374734;32;20047;-71
2022/03/14 08:03:45;;;;;;;37.65;15.98;;;;;;;1.80;100.00;100185.03;4373941;32;20035;-72
2022/03/14 08:06:19;;;;;;;34.75;15.27;;;;;;;2.07;100.00;100199.81;4374700;32;20365;-73
2022/03/14 08:08:46;;;;;;;36.58;17.23;;;;;;;2.16;100.00;100204.16;4374638;32;20381;-71
2022/03/14 08:11:13;;;;;;;37.88;16.45;;;;;;;2.12;100.00;100205.50;4375485;32;20069;-74
2022/03/14 08:13:39;;;;;;;31.75;16.20;;;;;;;2.09;100.00;100195.19;4373176;32;20031;-74
2022/03/14 08:16:06;;;;;;;31.60;15.55;;;;;;;1.77;100.00;100164.97;4371203;32;20077;-73
2022/03/14 08:18:32;;;;;;;38.55;18.73;;;;;;;2.21;100.00;100202.84;4359720;32;20048;-73
2022/03/14 08:20:59;;;;;;;34.05;16.35;;;;;;;2.06;100.00;100176.06;4375348;32;20044;-73
2022/03/14 08:23:26;;;;;;;46.67;16.80;;;;;;;2.46;100.00;100212.44;4368289;32;20412;-74
2022/03/14 08:25:54;;;;;;;42.35;17.17;;;;;;;2.65;100.00;100221.06;4370602;32;20065;-74
2022/03/14 08:28:21;;;;;;;28.23;12.57;;;;;;;2.72;100.00;100214.06;4373346;32;20039;-74
2022/03/14 08:30:48;;;;;;;40.58;13.32;;;;;;;2.78;100.00;100204.59;4374544;32;20039;-73
2022/03/14 08:33:17;;;;;;;32.50;15.43;;;;;;;2.62;100.00;100169.06;4373729;32;20384;-74
2022/03/14 08:35:44;;;;;;;28.80;13.80;;;;;;;2.66;100.00;100164.22;4372775;32;20393;-74
2022/03/14 08:38:13;;;;;;;30.25;14.23;;;;;;;3.18;100.00;100208.94;4370835;32;20040;-73
2022/03/14 08:40:40;;;;;;;39.08;16.42;;;;;;;2.95;100.00;100165.44;4375538;32;20056;-73
2022/03/14 08:43:06;;;;;;;29.75;13.48;;;;;;;3.34;100.00;100216.03;4357451;32;20043;-74
2022/03/14 08:45:33;;;;;;;38.38;16.25;;;;;;;3.11;100.00;100176.03;4373200;32;20027;-74
2022/03/14 08:47:59;;;;;;;45.83;16.00;;;;;;;3.30;100.00;100211.22;4372237;32;20047;-74
2022/03/14 08:50:26;;;;;;;38.20;18.20;;;;;;;3.11;100.00;100156.56;4373869;32;20162;-74
2022/03/14 08:52:52;;;;;;;34.97;14.38;;;;;;;3.20;100.00;100161.69;4372293;32;20431;-74
2022/03/14 08:55:19;;;;;;;29.17;13.27;;;;;;;3.57;100.00;100168.12;4369811;32;20073;-75
2022/03/14 08:57:45;;;;;;;31.35;14.90;;;;;;;3.80;100.00;100191.31;4359803;32;20035;-74
2022/03/14 09:00:13;;;;;;;41.30;16.02;;;;;;;3.63;100.00;100140.78;4374781;32;20040;-74
2022/03/14 09:02:41;;;;;;;42.55;18.30;;;;;;;3.72;100.00;100148.72;4360035;32;20039;-75
2022/03/14 09:05:08;;;;;;;35.45;14.43;;;;;;;4.05;100.00;100175.94;4359730;32;20028;-74
2022/03/14 09:07:35;;;;;;;42.22;15.18;;;;;;;4.23;100.00;100194.31;4367433;32;20069;-75
2022/03/14 09:10:08;;;;;;;38.17;15.98;;;;;;;4.26;100.00;100177.13;4349355;32;20043;-75
2022/03/14 09:12:37;;;;;;;37.78;15.63;;;;;;;4.56;100.00;100191.34;4373124;32;20104;-75
2022/03/14 09:15:05;;;;;;;31.20;13.68;;;;;;;4.50;96.34;100194.72;4373997;32;20057;-78
2022/03/14 09:17:32;;;;;;;33.33;15.20;;;;;;;4.36;94.98;100180.38;4358774;32;20048;-74
2022/03/14 09:20:03;;;;;;;33.50;13.52;;;;;;;4.76;93.94;100204.16;4363098;32;20058;-75
2022/03/14 09:22:29;;;;;;;29.60;13.80;;;;;;;4.58;91.53;100151.12;4357096;33;20423;-76
2022/03/14 09:24:56;;;;;;;32.75;14.63;;;;;;;4.71;92.76;100154.84;4332678;33;20065;-75
2022/03/14 09:27:25;;;;;;;33.28;14.05;;;;;;;4.93;89.04;100199.47;4359313;32;20081;-74
2022/03/14 09:29:52;;;;;;;44.90;15.93;;;;;;;4.85;90.11;100160.34;4359811;32;20339;-73
2022/03/14 09:32:20;;;;;;;35.10;14.57;;;;;;;4.90;90.27;100163.31;4359202;32;20065;-74
2022/03/14 09:34:47;;;;;;;31.95;14.93;;;;;;;5.31;88.58;100200.16;4357738;32;20085;-75
2022/03/14 09:37:14;;;;;;;27.33;13.80;;;;;;;5.38;82.21;100201.09;4357298;32;20061;-74
2022/03/14 09:39:42;;;;;;;31.73;13.80;;;;;;;4.69;83.42;100108.84;4355837;32;20043;-74
2022/03/14 09:42:12;;;;;;;30.27;14.38;;;;;;;5.43;84.23;100206.69;4358319;32;20020;-74
2022/03/14 09:44:43;;;;;;;38.17;17.23;;;;;;;5.26;84.68;100151.84;4358447;32;20023;-74
2022/03/14 09:47:13;;;;;;;37.60;14.57;;;;;;;5.40;84.45;100163.50;4359033;32;20047;-75
2022/03/14 09:49:44;;;;;;;26.40;11.88;;;;;;;5.94;84.35;100199.66;4371600;32;20413;-74
2022/03/14 09:52:13;;;;;;;38.33;16.85;;;;;;;5.99;81.41;100200.75;4374473;32;20041;-75
2022/03/14 09:54:39;;;;;;;32.08;14.30;;;;;;;6.01;75.56;100195.22;4372160;32;20020;-74
2022/03/14 09:57:06;;;;;;;35.25;13.45;;;;;;;5.77;73.35;100162.44;4372035;32;20368;-75
2022/03/14 09:59:37;;;;;;;31.95;14.00;;;;;;;6.25;73.42;100207.34;4372787;32;20056;-75
2022/03/14 10:02:04;;;;;;;38.70;16.77;;;;;;;5.85;71.68;100166.03;4372815;32;20031;-75
2022/03/14 10:04:31;;;;;;;35.10;15.15;;;;;;;6.03;71.54;100177.16;4372775;32;20069;-73
2022/03/14 10:06:57;;;;;;;33.65;15.88;;;;;;;6.12;71.49;100159.94;4358365;32;20061;-80
2022/03/14 10:09:24;;;;;;;37.17;16.10;;;;;;;5.99;72.67;100128.56;4371893;32;20368;-76
2022/03/14 10:11:52;;;;;;;34.42;15.40;;;;;;;6.57;72.75;100197.13;4370250;32;20049;-79
2022/03/14 10:14:20;;;;;;;36.78;18.37;;;;;;;6.65;72.35;100183.59;4363844;32;20043;-74
2022/03/14 10:16:47;;;;;;;36.42;15.20;;;;;;;6.31;70.09;100171.81;4354786;32;20046;-77
2022/03/14 10:19:20;;;;;;;33.75;15.88;;;;;;;6.11;68.94;100142.25;4372632;32;20479;-74
2022/03/14 10:21:50;;;;;;;46.83;18.27;;;;;;;6.36;69.63;100163.22;4373359;32;20024;-74
2022/03/14 10:24:22;;;;;;;40.40;18.60;;;;;;;6.57;72.20;100207.00;4372784;32;20459;-73
2022/03/14 10:26:49;;;;;;;36.17;15.93;;;;;;;6.24;69.38;100178.12;4373222;32;20384;-74
2022/03/14 10:29:20;;;;;;;35.78;15.90;;;;;;;6.35;70.93;100215.03;4372266;32;20435;-74
2022/03/14 10:31:55;;;;;;;32.53;16.52;;;;;;;6.52;69.35;100220.97;4372008;32;20042;-74
2022/03/14 10:34:22;;;;;;;41.72;17.23;;;;;;;6.80;67.19;100218.28;4354499;32;20040;-75
2022/03/14 10:36:54;;;;;;;43.30;16.15;;;;;;;6.95;65.37;100174.50;4366106;32;20028;-74
2022/03/14 10:39:26;;;;;;;42.47;16.48;;;;;;;7.41;63.89;100220.25;4355301;32;20041;-74
2022/03/14 10:42:07;;;;;;;46.80;15.05;;;;;;;6.99;64.04;100114.16;4368588;32;20429;-74
2022/03/14 10:44:37;;;;;;;40.20;16.83;;;;;;;7.58;63.32;100172.50;4368000;32;20077;-75
2022/03/14 10:47:06;;;;;;;36.70;16.15;;;;;;;7.57;61.03;100211.03;4371142;32;20370;-74
2022/03/14 10:49:35;;;;;;;38.47;15.00;;;;;;;7.67;60.29;100207.16;4371236;32;20031;-75
2022/03/14 10:52:06;;;;;;;37.92;15.48;;;;;;;7.68;60.38;100203.47;4370440;32;20019;-74
2022/03/14 10:54:38;;;;;;;48.70;16.17;;;;;;;7.85;58.64;100196.69;4370574;32;20365;-74
2022/03/14 10:57:12;;;;;;;39.33;14.93;;;;;;;8.23;59.13;100196.09;4371032;32;20042;-74
2022/03/14 10:59:41;;;;;;;41.15;16.40;;;;;;;8.49;58.15;100199.87;4353080;32;20040;-74
2022/03/14 11:02:10;;;;;;;39.67;16.17;;;;;;;8.36;55.63;100147.81;4340116;33;20028;-74
2022/03/14 11:04:40;;;;;;;33.03;15.82;;;;;;;8.59;53.12;100192.22;4342745;33;20035;-74
2022/03/14 11:07:07;;;;;;;36.55;14.43;;;;;;;8.32;54.31;100151.94;4355730;32;20048;-74
2022/03/14 11:09:48;;;;;;;29.85;14.57;;;;;;;8.82;54.16;100185.56;4355130;32;20027;-73